createdAt,value
2018-02-16T00:00:40.520Z,59.60
2018-02-16T00:03:08.966Z,59.55
2018-02-16T00:05:37.311Z,59.59
2018-02-16T00:08:05.732Z,59.26
2018-02-16T00:10:34.102Z,59.17
2018-02-16T00:13:02.500Z,59.75
2018-02-16T00:15:30.972Z,60.23
2018-02-16T00:17:59.327Z,59.85
2018-02-16T00:20:27.693Z,58.89
2018-02-16T00:22:56.052Z,59.36
2018-02-16T00:25:24.879Z,59.82
2018-02-16T00:27:53.222Z,60.18
2018-02-16T00:30:21.988Z,60.39
2018-02-16T00:32:50.348Z,59.58
2018-02-16T00:35:18.790Z,58.91
2018-02-16T00:37:47.187Z,59.43
2018-02-16T00:40:15.536Z,59.40
2018-02-16T00:42:43.896Z,59.44
2018-02-16T00:45:12.639Z,59.54
2018-02-16T00:47:41.107Z,59.52
2018-02-16T00:50:09.475Z,59.62
2018-02-16T00:52:37.840Z,59.73
2018-02-16T00:55:06.191Z,60.00
2018-02-16T00:57:35.043Z,60.28
2018-02-16T01:00:03.409Z,61.01
2018-02-16T01:02:31.766Z,60.44
2018-02-16T01:05:00.129Z,60.72
2018-02-16T01:07:28.559Z,61.00
2018-02-16T01:09:56.915Z,61.15
2018-02-16T01:12:25.320Z,61.15
2018-02-16T01:14:53.787Z,60.06
2018-02-16T01:17:22.167Z,60.15
2018-02-16T01:19:50.515Z,59.80
2018-02-16T01:22:18.871Z,60.67
2018-02-16T01:24:48.690Z,60.93
2018-02-16T01:27:17.045Z,60.74
2018-02-16T01:29:45.392Z,60.37
2018-02-16T01:32:13.801Z,61.27
2018-02-16T01:34:42.159Z,62.83
2018-02-16T01:37:10.523Z,61.69
2018-02-16T01:39:38.872Z,60.79
2018-02-16T01:42:07.240Z,60.90
2018-02-16T01:44:35.767Z,60.88
2018-02-16T01:47:04.155Z,61.95
2018-02-16T01:49:32.507Z,62.17
2018-02-16T01:52:00.861Z,62.04
2018-02-16T01:54:29.704Z,62.91
2018-02-16T01:56:58.079Z,63.19
2018-02-16T01:59:26.456Z,63.56
2018-02-16T02:01:54.831Z,62.70
2018-02-16T02:04:23.195Z,63.12
2018-02-16T02:06:51.542Z,62.50
2018-02-16T02:09:20.291Z,63.15
2018-02-16T02:11:48.632Z,62.23
2018-02-16T02:14:16.984Z,62.92
2018-02-16T02:16:45.726Z,61.67
2018-02-16T02:19:14.085Z,61.12
2018-02-16T02:21:42.431Z,61.21
2018-02-16T02:24:11.186Z,60.89
2018-02-16T02:26:39.544Z,61.10
2018-02-16T02:29:07.916Z,61.49
2018-02-16T02:31:36.306Z,61.87
2018-02-16T02:34:04.664Z,61.44
2018-02-16T02:36:33.007Z,61.44
2018-02-16T02:39:01.777Z,61.82
2018-02-16T02:41:30.234Z,62.04
2018-02-16T02:43:58.596Z,62.25
2018-02-16T02:46:26.979Z,61.78
2018-02-16T02:48:55.371Z,62.21
2018-02-16T02:51:23.748Z,61.27
2018-02-16T02:53:52.107Z,61.49
2018-02-16T02:56:20.509Z,62.72
2018-02-16T02:58:48.890Z,63.59
2018-02-16T03:01:17.244Z,63.70
2018-02-16T03:03:45.615Z,63.35
2018-02-16T03:06:14.675Z,63.10
2018-02-16T03:08:43.419Z,62.34
2018-02-16T03:11:11.809Z,61.79
2018-02-16T03:13:40.185Z,61.01
2018-02-16T03:16:08.533Z,60.72
2018-02-16T03:18:36.900Z,60.46
2018-02-16T03:21:05.243Z,60.20
2018-02-16T03:23:33.602Z,60.60
2018-02-16T03:26:01.963Z,60.93
2018-02-16T03:28:30.375Z,60.47
2018-02-16T03:30:58.727Z,60.76
2018-02-16T03:33:27.079Z,60.56
2018-02-16T03:35:55.498Z,61.20
2018-02-16T03:38:23.863Z,60.81
2018-02-16T03:40:52.203Z,60.49
2018-02-16T03:43:20.623Z,60.61
2018-02-16T03:45:48.979Z,59.66
2018-02-16T03:48:17.348Z,58.74
2018-02-16T03:50:45.753Z,59.28
2018-02-16T03:53:14.111Z,59.77
2018-02-16T03:55:42.468Z,58.80
2018-02-16T03:58:11.220Z,58.36
2018-02-16T04:00:39.575Z,58.80
2018-02-16T04:03:07.934Z,59.55
2018-02-16T04:05:36.291Z,60.29
2018-02-16T04:08:04.748Z,60.17
2018-02-16T04:10:33.087Z,60.57
2018-02-16T04:13:01.494Z,61.73
2018-02-16T04:15:29.832Z,61.35
2018-02-16T04:17:58.201Z,60.48
2018-02-16T04:20:26.558Z,60.48
2018-02-16T04:22:55.305Z,60.41
2018-02-16T04:25:23.671Z,60.42
2018-02-16T04:27:52.023Z,59.89
2018-02-16T04:30:20.427Z,59.25
2018-02-16T04:32:48.888Z,60.33
2018-02-16T04:35:17.232Z,59.64
2018-02-16T04:37:45.588Z,60.09
2018-02-16T04:40:14.708Z,60.86
2018-02-16T04:42:43.071Z,61.07
2018-02-16T04:45:11.458Z,60.64
2018-02-16T04:47:40.322Z,60.82
2018-02-16T04:50:08.698Z,61.02
2018-02-16T04:52:37.056Z,61.40
2018-02-16T04:55:05.423Z,62.48
2018-02-16T04:57:33.824Z,62.34
2018-02-16T05:00:02.200Z,62.71
2018-02-16T05:02:30.895Z,62.97
2018-02-16T05:04:59.252Z,63.56
2018-02-16T05:07:27.652Z,63.52
2018-02-16T05:09:56.007Z,62.96
2018-02-16T05:12:24.407Z,63.25
2018-02-16T05:14:53.400Z,63.50
2018-02-16T05:17:21.770Z,63.52
2018-02-16T05:19:50.127Z,64.20
2018-02-16T05:22:18.484Z,63.78
2018-02-16T05:24:47.434Z,64.08
2018-02-16T05:27:15.807Z,64.27
2018-02-16T05:29:44.162Z,64.14
2018-02-16T05:32:12.526Z,64.42
2018-02-16T05:34:40.953Z,64.65
2018-02-16T05:37:09.324Z,63.97
2018-02-16T05:39:37.815Z,64.28
2018-02-16T05:42:06.364Z,64.10
2018-02-16T05:44:34.728Z,63.71
2018-02-16T05:47:03.075Z,64.04
2018-02-16T05:49:31.433Z,63.95
2018-02-16T05:51:59.805Z,63.53
2018-02-16T05:54:28.188Z,65.07
2018-02-16T05:56:56.555Z,65.34
2018-02-16T05:59:24.915Z,65.06
2018-02-16T06:01:53.274Z,64.46
2018-02-16T06:04:21.634Z,64.74
2018-02-16T06:06:50.595Z,63.83
2018-02-16T06:09:18.955Z,64.37
2018-02-16T06:11:47.355Z,64.20
2018-02-16T06:14:15.724Z,63.67
2018-02-16T06:16:44.101Z,63.37
2018-02-16T06:19:12.460Z,63.14
2018-02-16T06:21:40.846Z,63.51
2018-02-16T06:24:09.537Z,63.43
2018-02-16T06:26:38.100Z,63.18
2018-02-16T06:29:06.605Z,62.95
2018-02-16T06:31:34.956Z,62.50
2018-02-16T06:34:03.422Z,62.85
2018-02-16T06:36:31.781Z,62.52
2018-02-16T06:39:00.943Z,62.30
2018-02-16T06:41:29.826Z,62.19
2018-02-16T06:44:00.560Z,61.92
2018-02-16T06:46:31.337Z,61.41
2018-02-16T06:49:01.491Z,61.84
2018-02-16T06:51:30.324Z,61.31
2018-02-16T06:53:58.801Z,60.41
2018-02-16T06:56:27.161Z,59.54
2018-02-16T06:58:55.962Z,57.78
2018-02-16T07:01:24.340Z,56.87
2018-02-16T07:03:52.733Z,56.25
2018-02-16T07:06:22.589Z,54.07
2018-02-16T07:08:51.452Z,51.49
2018-02-16T07:11:19.847Z,50.45
2018-02-16T07:13:48.602Z,49.66
2018-02-16T07:16:17.066Z,45.59
2018-02-16T07:18:45.450Z,44.75
2018-02-16T07:21:13.827Z,43.42
2018-02-16T07:23:42.186Z,41.64
2018-02-16T07:26:10.586Z,40.19
2018-02-16T07:28:39.069Z,39.50
2018-02-16T07:31:08.467Z,40.19
2018-02-16T07:33:36.836Z,38.89
2018-02-16T07:36:05.230Z,39.13
2018-02-16T07:38:33.584Z,37.68
2018-02-16T07:41:01.964Z,39.37
2018-02-16T07:43:30.328Z,40.66
2018-02-16T07:45:58.671Z,38.82
2018-02-16T07:48:27.127Z,36.67
2018-02-16T07:50:55.565Z,34.34
2018-02-16T07:53:23.955Z,32.49
2018-02-16T07:55:52.307Z,31.06
2018-02-16T07:58:21.165Z,29.60
2018-02-16T08:00:49.522Z,28.83
2018-02-16T08:03:17.912Z,28.55
2018-02-16T08:05:46.303Z,29.67
2018-02-16T08:08:14.758Z,29.63
2018-02-16T08:10:43.139Z,29.79
2018-02-16T08:13:11.523Z,29.58
2018-02-16T08:15:40.102Z,28.75
2018-02-16T08:18:08.520Z,27.35
2018-02-16T08:20:36.966Z,26.40
2018-02-16T08:23:05.351Z,25.93
2018-02-16T08:25:33.721Z,24.95
2018-02-16T08:28:02.080Z,24.60
2018-02-16T08:30:30.679Z,24.88
2018-02-16T08:32:59.050Z,27.64
2018-02-16T08:35:27.419Z,27.82
2018-02-16T08:37:55.811Z,26.97
2018-02-16T08:40:24.139Z,26.85
2018-02-16T08:42:52.904Z,25.55
2018-02-16T08:45:21.271Z,24.82
2018-02-16T08:47:49.639Z,24.49
2018-02-16T08:50:17.997Z,24.30
2018-02-16T08:52:46.358Z,24.29
2018-02-16T08:55:15.112Z,24.91
2018-02-16T08:57:43.481Z,24.72
2018-02-16T09:00:11.833Z,24.05
2018-02-16T09:02:40.224Z,24.89
2018-02-16T09:05:08.575Z,24.49
2018-02-16T09:07:36.939Z,24.19
2018-02-16T09:10:05.772Z,25.05
2018-02-16T09:12:34.132Z,25.33
2018-02-16T09:15:02.488Z,25.02
2018-02-16T09:17:31.244Z,24.60
2018-02-16T09:19:59.696Z,25.20
2018-02-16T09:22:28.076Z,24.83
2018-02-16T09:24:56.444Z,24.54
2018-02-16T09:27:24.813Z,23.97
2018-02-16T09:29:53.936Z,24.58
2018-02-16T09:32:22.307Z,25.10
2018-02-16T09:34:50.672Z,24.71
2018-02-16T09:37:19.679Z,25.80
2018-02-16T09:39:49.478Z,26.67
2018-02-16T09:42:17.835Z,26.66
2018-02-16T09:44:46.200Z,27.30
2018-02-16T09:47:15.037Z,27.38
2018-02-16T09:49:43.391Z,27.46
2018-02-16T09:52:11.751Z,27.42
2018-02-16T09:54:40.598Z,27.80
2018-02-16T09:57:09.063Z,27.78
2018-02-16T09:59:37.420Z,28.10
2018-02-16T10:02:05.819Z,28.36
2018-02-16T10:04:34.180Z,29.51
2018-02-16T10:07:02.607Z,29.67
2018-02-16T10:09:31.068Z,30.22
2018-02-16T10:11:59.427Z,30.61
2018-02-16T10:14:27.823Z,29.99
2018-02-16T10:16:56.180Z,29.86
2018-02-16T10:19:24.546Z,29.47
2018-02-16T10:21:52.924Z,28.94
2018-02-16T10:24:21.280Z,28.03
2018-02-16T10:26:50.238Z,29.09
2018-02-16T10:29:18.720Z,29.54
2018-02-16T10:31:47.108Z,29.40
2018-02-16T10:34:15.536Z,29.55
2018-02-16T10:36:43.866Z,28.93
2018-02-16T10:39:12.324Z,29.72
2018-02-16T10:41:40.682Z,30.36
2018-02-16T10:44:09.084Z,30.73
2018-02-16T10:46:37.444Z,32.69
2018-02-16T10:49:05.838Z,34.47
2018-02-16T10:51:34.195Z,35.06
2018-02-16T10:54:02.588Z,35.84
2018-02-16T10:56:30.975Z,36.23
2018-02-16T10:58:59.336Z,36.67
2018-02-16T11:01:27.697Z,36.04
2018-02-16T11:03:58.992Z,34.69
2018-02-16T11:06:32.930Z,35.10
2018-02-16T11:09:07.231Z,34.44
2018-02-16T11:11:35.590Z,34.05
2018-02-16T11:14:03.940Z,34.19
2018-02-16T11:16:32.611Z,34.33
2018-02-16T11:19:01.028Z,33.93
2018-02-16T11:21:29.419Z,34.06
2018-02-16T11:23:57.788Z,35.08
2018-02-16T11:26:26.163Z,36.38
2018-02-16T11:28:54.543Z,35.71
2018-02-16T11:31:22.910Z,35.72
2018-02-16T11:33:51.272Z,36.68
2018-02-16T11:36:19.692Z,38.23
2018-02-16T11:38:48.046Z,39.36
2018-02-16T11:41:16.517Z,39.89
2018-02-16T11:43:44.872Z,40.09
2018-02-16T11:46:13.708Z,40.12
2018-02-16T11:48:42.088Z,40.98
2018-02-16T11:51:10.445Z,41.16
2018-02-16T11:53:38.819Z,41.29
2018-02-16T11:56:07.220Z,40.35
2018-02-16T11:58:35.588Z,40.71
2018-02-16T12:01:03.956Z,40.69
2018-02-16T12:03:32.391Z,40.69
2018-02-16T12:06:00.840Z,41.34
2018-02-16T12:08:29.199Z,41.83
2018-02-16T12:10:58.394Z,41.82
2018-02-16T12:13:26.801Z,41.52
2018-02-16T12:15:55.151Z,41.14
2018-02-16T12:18:23.535Z,40.69
2018-02-16T12:20:51.932Z,40.73
2018-02-16T12:23:20.320Z,41.19
2018-02-16T12:25:48.684Z,41.57
2018-02-16T12:28:17.800Z,42.36
2018-02-16T12:30:46.188Z,43.07
2018-02-16T12:33:14.660Z,43.09
2018-02-16T12:35:43.024Z,42.50
2018-02-16T12:38:11.390Z,41.65
2018-02-16T12:40:39.771Z,41.54
2018-02-16T12:43:08.150Z,41.18
2018-02-16T12:45:36.507Z,41.17
2018-02-16T12:48:04.872Z,41.68
2018-02-16T12:50:33.219Z,42.17
2018-02-16T12:53:01.583Z,42.17
2018-02-16T12:55:29.939Z,42.10
2018-02-16T12:57:58.307Z,42.13
2018-02-16T13:00:26.732Z,41.69
2018-02-16T13:02:55.136Z,42.52
2018-02-16T13:05:23.907Z,43.33
2018-02-16T13:07:52.300Z,43.10
2018-02-16T13:10:21.050Z,43.24
2018-02-16T13:12:49.420Z,43.00
2018-02-16T13:15:17.779Z,41.62
2018-02-16T13:17:46.184Z,41.73
2018-02-16T13:20:14.537Z,42.10
2018-02-16T13:22:42.906Z,41.11
2018-02-16T13:25:11.325Z,41.42
2018-02-16T13:27:39.688Z,41.35
2018-02-16T13:30:08.081Z,41.45
2018-02-16T13:32:37.276Z,41.76
2018-02-16T13:35:05.657Z,42.17
2018-02-16T13:37:34.028Z,41.52
2018-02-16T13:40:02.391Z,40.96
2018-02-16T13:42:30.765Z,40.42
2018-02-16T13:44:59.106Z,40.25
2018-02-16T13:47:27.864Z,40.00
2018-02-16T13:49:56.231Z,40.07
2018-02-16T13:52:24.592Z,39.37
2018-02-16T13:54:52.970Z,39.29
2018-02-16T13:57:21.367Z,38.87
2018-02-16T13:59:49.756Z,37.90
2018-02-16T14:02:18.126Z,36.73
2018-02-16T14:04:46.492Z,36.86
2018-02-16T14:07:14.896Z,37.13
2018-02-16T14:09:43.264Z,37.19
2018-02-16T14:12:11.620Z,38.08
2018-02-16T14:14:40.025Z,38.61
2018-02-16T14:17:08.387Z,38.41
2018-02-16T14:19:36.793Z,38.87
2018-02-16T14:22:05.166Z,38.73
2018-02-16T14:24:33.545Z,38.71
2018-02-16T14:27:02.008Z,38.93
2018-02-16T14:29:30.363Z,39.27
2018-02-16T14:31:58.787Z,39.54
2018-02-16T14:34:27.149Z,40.96
2018-02-16T14:36:55.578Z,40.79
2018-02-16T14:39:24.548Z,41.02
2018-02-16T14:41:53.130Z,40.91
2018-02-16T14:44:21.500Z,41.47
2018-02-16T14:46:49.872Z,41.41
2018-02-16T14:49:18.232Z,42.46
2018-02-16T14:51:46.583Z,42.61
2018-02-16T14:54:14.932Z,42.10
2018-02-16T14:56:43.383Z,41.55
2018-02-16T14:59:11.735Z,41.74
2018-02-16T15:01:40.097Z,43.04
2018-02-16T15:04:08.932Z,43.46
2018-02-16T15:06:37.297Z,42.94
2018-02-16T15:09:05.661Z,42.05
2018-02-16T15:11:34.057Z,42.06
2018-02-16T15:14:02.420Z,42.14
2018-02-16T15:16:30.790Z,41.60
2018-02-16T15:18:59.209Z,41.66
2018-02-16T15:21:27.600Z,41.78
2018-02-16T15:23:55.968Z,42.23
2018-02-16T15:26:24.331Z,41.90
2018-02-16T15:28:52.701Z,42.05
2018-02-16T15:31:21.882Z,41.93
2018-02-16T15:33:50.237Z,41.56
2018-02-16T15:36:18.591Z,41.82
2018-02-16T15:38:46.942Z,42.25
2018-02-16T15:41:15.316Z,42.43
2018-02-16T15:43:43.671Z,42.41
2018-02-16T15:46:12.037Z,41.67
2018-02-16T15:48:42.123Z,41.92
2018-02-16T15:51:10.580Z,42.49
2018-02-16T15:53:38.923Z,42.34
2018-02-16T15:56:07.276Z,42.44
2018-02-16T15:58:35.637Z,42.33
2018-02-16T16:01:04.008Z,41.67
2018-02-16T16:03:32.371Z,42.46
2018-02-16T16:06:00.719Z,42.90
2018-02-16T16:08:29.063Z,43.08
2018-02-16T16:10:57.425Z,42.97
2018-02-16T16:13:25.808Z,43.50
2018-02-16T16:15:54.163Z,43.41
2018-02-16T16:18:22.523Z,43.44
2018-02-16T16:20:50.878Z,43.72
2018-02-16T16:23:19.699Z,43.52
2018-02-16T16:25:48.083Z,44.02
2018-02-16T16:28:16.435Z,43.89
2018-02-16T16:30:44.809Z,44.31
2018-02-16T16:33:13.169Z,44.03
2018-02-16T16:35:41.917Z,44.25
2018-02-16T16:38:10.307Z,44.07
2018-02-16T16:40:38.673Z,43.67
2018-02-16T16:43:07.024Z,44.19
2018-02-16T16:45:35.392Z,45.59
2018-02-16T16:48:03.803Z,45.12
2018-02-16T16:50:32.160Z,45.12
2018-02-16T16:53:00.564Z,45.23
2018-02-16T16:55:28.923Z,44.98
2018-02-16T16:57:57.432Z,45.41
2018-02-16T17:00:25.815Z,45.51
2018-02-16T17:02:54.191Z,45.40
2018-02-16T17:05:22.570Z,45.88
2018-02-16T17:07:50.915Z,46.39
2018-02-16T17:10:19.278Z,46.02
2018-02-16T17:12:48.034Z,46.10
2018-02-16T17:15:16.413Z,46.58
2018-02-16T17:17:44.777Z,47.01
2018-02-16T17:20:13.170Z,46.80
2018-02-16T17:22:41.625Z,46.35
2018-02-16T17:25:10.099Z,46.54
2018-02-16T17:27:38.453Z,46.41
2018-02-16T17:30:06.844Z,47.20
2018-02-16T17:32:35.192Z,47.22
2018-02-16T17:35:04.006Z,47.01
2018-02-16T17:37:32.356Z,47.28
2018-02-16T17:40:01.115Z,47.20
2018-02-16T17:42:29.488Z,46.90
2018-02-16T17:44:57.864Z,46.81
2018-02-16T17:47:26.235Z,46.96
2018-02-16T17:49:54.602Z,46.83
2018-02-16T17:52:22.984Z,47.26
2018-02-16T17:54:51.355Z,47.62
2018-02-16T17:57:19.757Z,47.78
2018-02-16T17:59:48.166Z,47.93
2018-02-16T18:02:16.920Z,48.86
2018-02-16T18:04:45.284Z,48.96
2018-02-16T18:07:13.663Z,49.36
2018-02-16T18:09:42.020Z,49.47
2018-02-16T18:12:10.364Z,49.34
2018-02-16T18:14:38.771Z,49.34
2018-02-16T18:17:07.135Z,49.54
2018-02-16T18:19:35.895Z,49.28
2018-02-16T18:22:04.259Z,49.51
2018-02-16T18:24:32.632Z,49.52
2018-02-16T18:27:01.019Z,49.19
2018-02-16T18:29:29.379Z,49.35
2018-02-16T18:31:57.730Z,49.75
2018-02-16T18:34:26.079Z,50.45
2018-02-16T18:36:54.520Z,50.21
2018-02-16T18:39:22.907Z,50.47
2018-02-16T18:41:51.279Z,50.05
2018-02-16T18:44:19.648Z,50.20
2018-02-16T18:46:48.043Z,50.56
2018-02-16T18:49:16.392Z,50.37
2018-02-16T18:51:44.741Z,50.10
2018-02-16T18:54:13.504Z,51.01
2018-02-16T18:56:41.861Z,51.21
2018-02-16T18:59:10.239Z,50.91
2018-02-16T19:01:38.647Z,50.93
2018-02-16T19:04:07.100Z,51.03
2018-02-16T19:06:35.479Z,51.14
2018-02-16T19:09:03.839Z,51.35
2018-02-16T19:11:32.239Z,51.35
2018-02-16T19:14:00.592Z,51.50
2018-02-16T19:16:28.996Z,51.28
2018-02-16T19:18:57.376Z,51.83
2018-02-16T19:21:25.723Z,51.58
2018-02-16T19:23:54.083Z,51.32
2018-02-16T19:26:22.434Z,51.64
2018-02-16T19:28:50.839Z,52.12
2018-02-16T19:31:19.164Z,51.63
2018-02-16T19:33:47.543Z,51.82
2018-02-16T19:36:15.903Z,51.76
2018-02-16T19:38:44.308Z,51.63
2018-02-16T19:41:12.719Z,51.68
2018-02-16T19:43:41.060Z,52.37
2018-02-16T19:46:09.435Z,53.10
2018-02-16T19:48:37.795Z,52.75
2018-02-16T19:51:06.145Z,52.46
2018-02-16T19:53:34.976Z,52.36
2018-02-16T19:56:03.387Z,52.71
2018-02-16T19:58:31.754Z,52.40
2018-02-16T20:01:00.122Z,52.38
2018-02-16T20:03:28.484Z,52.25
2018-02-16T20:05:56.884Z,51.87
2018-02-16T20:08:25.248Z,52.01
2018-02-16T20:10:53.644Z,51.98
2018-02-16T20:13:22.012Z,52.58
2018-02-16T20:15:50.384Z,53.03
2018-02-16T20:18:18.741Z,52.67
2018-02-16T20:20:47.089Z,52.79
2018-02-16T20:23:16.017Z,52.59
2018-02-16T20:25:44.375Z,52.69
2018-02-16T20:28:13.132Z,52.59
2018-02-16T20:30:42.406Z,52.62
2018-02-16T20:33:10.799Z,53.10
2018-02-16T20:35:39.178Z,53.23
2018-02-16T20:38:07.652Z,53.29
2018-02-16T20:40:36.019Z,53.31
2018-02-16T20:43:04.416Z,53.53
2018-02-16T20:45:32.759Z,53.44
2018-02-16T20:48:01.116Z,53.44
2018-02-16T20:50:29.867Z,53.32
2018-02-16T20:52:58.323Z,53.47
2018-02-16T20:55:26.700Z,53.80
2018-02-16T20:57:55.092Z,53.72
2018-02-16T21:00:23.455Z,53.88
2018-02-16T21:02:51.805Z,54.50
2018-02-16T21:05:20.143Z,54.17
2018-02-16T21:07:48.599Z,54.43
2018-02-16T21:10:16.979Z,54.33
2018-02-16T21:12:45.364Z,54.89
2018-02-16T21:15:13.726Z,54.40
2018-02-16T21:17:42.107Z,53.83
2018-02-16T21:20:10.487Z,53.66
2018-02-16T21:22:38.883Z,53.79
2018-02-16T21:25:07.276Z,53.76
2018-02-16T21:27:35.736Z,53.73
2018-02-16T21:30:04.099Z,54.11
2018-02-16T21:32:33.246Z,53.98
2018-02-16T21:35:01.601Z,53.82
2018-02-16T21:37:29.940Z,53.88
2018-02-16T21:39:58.299Z,54.12
2018-02-16T21:42:26.660Z,54.04
2018-02-16T21:44:55.503Z,54.35
2018-02-16T21:47:23.895Z,54.02
2018-02-16T21:49:52.259Z,54.45
2018-02-16T21:52:20.743Z,54.19
2018-02-16T21:54:49.133Z,54.38
2018-02-16T21:57:17.514Z,54.81
2018-02-16T21:59:45.949Z,54.70
2018-02-16T22:02:14.246Z,54.69
2018-02-16T22:04:42.625Z,54.17
2018-02-16T22:07:11.024Z,54.06
2018-02-16T22:09:39.387Z,54.11
2018-02-16T22:12:07.779Z,54.08
2018-02-16T22:14:36.159Z,54.24
2018-02-16T22:17:04.531Z,54.46
2018-02-16T22:19:32.938Z,54.50
2018-02-16T22:22:01.945Z,54.96
2018-02-16T22:24:30.372Z,54.82
2018-02-16T22:26:58.749Z,54.78
2018-02-16T22:29:27.157Z,54.60
2018-02-16T22:31:55.568Z,54.96
2018-02-16T22:34:24.032Z,54.92
2018-02-16T22:36:52.419Z,54.91
2018-02-16T22:39:20.798Z,54.52
2018-02-16T22:41:49.164Z,54.25
2018-02-16T22:44:17.544Z,54.20
2018-02-16T22:46:45.905Z,54.64
2018-02-16T22:49:14.272Z,55.58
2018-02-16T22:51:42.691Z,56.02
2018-02-16T22:54:11.051Z,56.11
2018-02-16T22:56:39.420Z,55.66
2018-02-16T22:59:07.860Z,56.17
2018-02-16T23:01:36.203Z,56.17
2018-02-16T23:04:04.689Z,55.65
2018-02-16T23:06:33.064Z,55.76
2018-02-16T23:09:01.464Z,55.68
2018-02-16T23:11:30.215Z,55.27
2018-02-16T23:13:58.611Z,55.68
2018-02-16T23:16:27.121Z,56.09
2018-02-16T23:18:55.921Z,55.89
2018-02-16T23:21:24.339Z,56.14
2018-02-16T23:23:52.764Z,56.30
2018-02-16T23:26:21.613Z,56.32
2018-02-16T23:28:49.991Z,56.08
2018-02-16T23:31:18.393Z,55.83
2018-02-16T23:33:46.781Z,55.86
2018-02-16T23:36:15.643Z,55.83
2018-02-16T23:38:44.115Z,55.35
2018-02-16T23:41:12.491Z,55.66
2018-02-16T23:43:40.841Z,55.69
2018-02-16T23:46:09.199Z,55.51
2018-02-16T23:48:37.603Z,56.37
2018-02-16T23:51:05.981Z,56.05
2018-02-16T23:53:34.359Z,55.98
2018-02-16T23:56:02.731Z,55.54
2018-02-16T23:58:31.101Z,55.62
